sensor_id;sensor_type;location;lat;lon;timestamp;temperature;humidity
63219;DHT22;49320;52.512;13.448;2023-06-04T00:02:24;17.00;35.20
63219;DHT22;49320;52.512;13.448;2023-06-04T00:04:52;16.90;34.60
63219;DHT22;49320;52.512;13.448;2023-06-04T00:07:20;17.00;35.10
63219;DHT22;49320;52.512;13.448;2023-06-04T00:12:14;16.90;35.10
63219;DHT22;49320;52.512;13.448;2023-06-04T00:14:41;16.90;35.60
63219;DHT22;49320;52.512;13.448;2023-06-04T00:17:09;16.80;35.30
63219;DHT22;49320;52.512;13.448;2023-06-04T00:19:40;17.80;36.30
63219;DHT22;49320;52.512;13.448;2023-06-04T00:22:08;16.80;35.50
63219;DHT22;49320;52.512;13.448;2023-06-04T00:24:36;16.70;35.50
63219;DHT22;49320;52.512;13.448;2023-06-04T00:27:05;16.70;36.10
63219;DHT22;49320;52.512;13.448;2023-06-04T00:29:33;16.60;35.80
63219;DHT22;49320;52.512;13.448;2023-06-04T00:32:00;16.70;36.40
63219;DHT22;49320;52.512;13.448;2023-06-04T00:34:28;16.60;36.50
63219;DHT22;49320;52.512;13.448;2023-06-04T00:36:54;16.60;36.50
63219;DHT22;49320;52.512;13.448;2023-06-04T00:39:21;16.50;36.20
63219;DHT22;49320;52.512;13.448;2023-06-04T00:41:48;16.50;36.80
63219;DHT22;49320;52.512;13.448;2023-06-04T00:44:15;16.50;36.90
63219;DHT22;49320;52.512;13.448;2023-06-04T00:46:42;16.50;37.10
63219;DHT22;49320;52.512;13.448;2023-06-04T00:49:12;16.40;37.10
63219;DHT22;49320;52.512;13.448;2023-06-04T00:51:39;16.40;37.30
63219;DHT22;49320;52.512;13.448;2023-06-04T00:54:07;16.40;37.10
63219;DHT22;49320;52.512;13.448;2023-06-04T00:56:36;16.40;37.50
63219;DHT22;49320;52.512;13.448;2023-06-04T00:59:07;16.40;37.60
63219;DHT22;49320;52.512;13.448;2023-06-04T01:04:34;16.30;37.70
63219;DHT22;49320;52.512;13.448;2023-06-04T01:07:08;16.30;37.70
63219;DHT22;49320;52.512;13.448;2023-06-04T01:09:36;16.30;37.70
63219;DHT22;49320;52.512;13.448;2023-06-04T01:12:05;16.30;38.00
63219;DHT22;49320;52.512;13.448;2023-06-04T01:14:32;16.30;38.00
63219;DHT22;49320;52.512;13.448;2023-06-04T01:22:56;16.20;38.80
63219;DHT22;49320;52.512;13.448;2023-06-04T01:28:12;16.20;38.00
63219;DHT22;49320;52.512;13.448;2023-06-04T01:30:41;16.10;38.60
63219;DHT22;49320;52.512;13.448;2023-06-04T01:33:16;16.10;38.20
63219;DHT22;49320;52.512;13.448;2023-06-04T01:35:44;16.00;38.70
63219;DHT22;49320;52.512;13.448;2023-06-04T01:38:11;16.10;39.00
63219;DHT22;49320;52.512;13.448;2023-06-04T01:40:38;16.10;39.00
63219;DHT22;49320;52.512;13.448;2023-06-04T01:43:05;16.00;38.90
63219;DHT22;49320;52.512;13.448;2023-06-04T01:45:32;15.90;38.50
63219;DHT22;49320;52.512;13.448;2023-06-04T01:48:02;16.00;39.10
63219;DHT22;49320;52.512;13.448;2023-06-04T01:50:30;16.00;39.30
63219;DHT22;49320;52.512;13.448;2023-06-04T01:52:57;15.90;38.80
63219;DHT22;49320;52.512;13.448;2023-06-04T01:55:24;15.90;39.50
63219;DHT22;49320;52.512;13.448;2023-06-04T01:57:51;16.00;39.60
63219;DHT22;49320;52.512;13.448;2023-06-04T02:02:47;15.80;39.10
63219;DHT22;49320;52.512;13.448;2023-06-04T02:05:17;15.80;39.70
63219;DHT22;49320;52.512;13.448;2023-06-04T02:07:45;15.80;40.00
63219;DHT22;49320;52.512;13.448;2023-06-04T02:10:14;15.70;40.00
63219;DHT22;49320;52.512;13.448;2023-06-04T02:12:59;14.40;39.40
63219;DHT22;49320;52.512;13.448;2023-06-04T02:15:32;15.70;40.10
63219;DHT22;49320;52.512;13.448;2023-06-04T02:18:11;15.70;40.10
63219;DHT22;49320;52.512;13.448;2023-06-04T02:20:44;15.60;41.00
63219;DHT22;49320;52.512;13.448;2023-06-04T02:23:13;15.60;39.70
63219;DHT22;49320;52.512;13.448;2023-06-04T02:25:41;15.60;40.20
63219;DHT22;49320;52.512;13.448;2023-06-04T02:28:11;15.60;40.20
63219;DHT22;49320;52.512;13.448;2023-06-04T02:30:38;15.50;40.40
63219;DHT22;49320;52.512;13.448;2023-06-04T02:33:05;15.50;39.90
63219;DHT22;49320;52.512;13.448;2023-06-04T02:35:32;15.50;40.50
63219;DHT22;49320;52.512;13.448;2023-06-04T02:37:59;15.50;40.60
63219;DHT22;49320;52.512;13.448;2023-06-04T02:40:27;15.50;40.60
63219;DHT22;49320;52.512;13.448;2023-06-04T02:42:56;15.40;40.70
63219;DHT22;49320;52.512;13.448;2023-06-04T02:45:24;15.40;40.60
63219;DHT22;49320;52.512;13.448;2023-06-04T02:47:52;15.40;40.70
63219;DHT22;49320;52.512;13.448;2023-06-04T02:50:19;15.40;40.80
63219;DHT22;49320;52.512;13.448;2023-06-04T02:52:46;15.30;40.80
63219;DHT22;49320;52.512;13.448;2023-06-04T02:55:13;15.30;40.90
63219;DHT22;49320;52.512;13.448;2023-06-04T02:57:41;15.30;41.00
63219;DHT22;49320;52.512;13.448;2023-06-04T03:00:12;15.20;41.10
63219;DHT22;49320;52.512;13.448;2023-06-04T03:02:45;15.30;41.00
63219;DHT22;49320;52.512;13.448;2023-06-04T03:05:15;15.20;40.90
63219;DHT22;49320;52.512;13.448;2023-06-04T03:07:46;15.20;41.30
63219;DHT22;49320;52.512;13.448;2023-06-04T03:10:14;15.30;41.50
63219;DHT22;49320;52.512;13.448;2023-06-04T03:12:42;15.20;41.50
63219;DHT22;49320;52.512;13.448;2023-06-04T03:15:09;15.20;41.30
63219;DHT22;49320;52.512;13.448;2023-06-04T03:17:37;15.10;41.70
63219;DHT22;49320;52.512;13.448;2023-06-04T03:20:04;15.10;41.80
63219;DHT22;49320;52.512;13.448;2023-06-04T03:22:34;15.10;42.00
63219;DHT22;49320;52.512;13.448;2023-06-04T03:25:02;15.00;42.10
63219;DHT22;49320;52.512;13.448;2023-06-04T03:27:31;15.00;42.20
63219;DHT22;49320;52.512;13.448;2023-06-04T03:29:59;15.00;42.30
63219;DHT22;49320;52.512;13.448;2023-06-04T03:32:25;15.00;42.30
63219;DHT22;49320;52.512;13.448;2023-06-04T03:34:52;14.90;42.40
63219;DHT22;49320;52.512;13.448;2023-06-04T03:37:19;14.90;42.60
63219;DHT22;49320;52.512;13.448;2023-06-04T03:39:46;15.00;42.70
63219;DHT22;49320;52.512;13.448;2023-06-04T03:42:13;14.80;42.80
63219;DHT22;49320;52.512;13.448;2023-06-04T03:44:40;14.90;42.90
63219;DHT22;49320;52.512;13.448;2023-06-04T03:47:07;14.90;43.00
63219;DHT22;49320;52.512;13.448;2023-06-04T03:49:33;14.90;43.00
63219;DHT22;49320;52.512;13.448;2023-06-04T03:52:00;14.90;43.10
63219;DHT22;49320;52.512;13.448;2023-06-04T03:54:27;14.90;43.10
63219;DHT22;49320;52.512;13.448;2023-06-04T03:56:54;14.90;43.20
63219;DHT22;49320;52.512;13.448;2023-06-04T03:59:21;14.80;43.10
63219;DHT22;49320;52.512;13.448;2023-06-04T04:01:47;15.00;43.00
63219;DHT22;49320;52.512;13.448;2023-06-04T04:04:14;15.00;42.90
63219;DHT22;49320;52.512;13.448;2023-06-04T04:06:42;15.00;43.10
63219;DHT22;49320;52.512;13.448;2023-06-04T04:09:08;15.00;43.20
63219;DHT22;49320;52.512;13.448;2023-06-04T04:11:35;15.10;43.30
63219;DHT22;49320;52.512;13.448;2023-06-04T04:14:02;15.10;43.20
63219;DHT22;49320;52.512;13.448;2023-06-04T04:16:29;15.10;43.20
63219;DHT22;49320;52.512;13.448;2023-06-04T04:18:56;15.10;43.20
63219;DHT22;49320;52.512;13.448;2023-06-04T04:21:23;15.20;43.20
63219;DHT22;49320;52.512;13.448;2023-06-04T04:23:50;15.10;43.10
63219;DHT22;49320;52.512;13.448;2023-06-04T04:26:18;15.30;43.10
63219;DHT22;49320;52.512;13.448;2023-06-04T04:28:44;15.30;43.00
63219;DHT22;49320;52.512;13.448;2023-06-04T04:31:11;15.40;42.90
63219;DHT22;49320;52.512;13.448;2023-06-04T04:33:38;15.40;43.00
63219;DHT22;49320;52.512;13.448;2023-06-04T04:36:07;15.50;42.90
63219;DHT22;49320;52.512;13.448;2023-06-04T04:38:39;15.50;42.90
63219;DHT22;49320;52.512;13.448;2023-06-04T04:41:07;15.60;42.80
63219;DHT22;49320;52.512;13.448;2023-06-04T04:43:36;15.70;42.80
63219;DHT22;49320;52.512;13.448;2023-06-04T04:46:04;15.70;42.80
63219;DHT22;49320;52.512;13.448;2023-06-04T04:48:32;15.80;42.70
63219;DHT22;49320;52.512;13.448;2023-06-04T04:50:59;15.90;42.70
63219;DHT22;49320;52.512;13.448;2023-06-04T04:53:26;15.90;43.20
63219;DHT22;49320;52.512;13.448;2023-06-04T04:55:53;16.00;42.30
63219;DHT22;49320;52.512;13.448;2023-06-04T04:58:20;16.00;42.50
63219;DHT22;49320;52.512;13.448;2023-06-04T05:00:47;16.10;42.40
63219;DHT22;49320;52.512;13.448;2023-06-04T05:03:14;16.10;42.40
63219;DHT22;49320;52.512;13.448;2023-06-04T05:05:41;16.20;42.30
63219;DHT22;49320;52.512;13.448;2023-06-04T05:08:08;16.30;42.30
63219;DHT22;49320;52.512;13.448;2023-06-04T05:10:35;16.40;42.20
63219;DHT22;49320;52.512;13.448;2023-06-04T05:13:02;16.50;42.20
63219;DHT22;49320;52.512;13.448;2023-06-04T05:15:31;16.60;42.30
63219;DHT22;49320;52.512;13.448;2023-06-04T05:17:59;16.80;42.30
63219;DHT22;49320;52.512;13.448;2023-06-04T05:20:27;17.10;42.20
63219;DHT22;49320;52.512;13.448;2023-06-04T05:22:54;17.50;42.10
63219;DHT22;49320;52.512;13.448;2023-06-04T05:25:22;17.80;41.80
63219;DHT22;49320;52.512;13.448;2023-06-04T05:27:49;18.20;41.30
63219;DHT22;49320;52.512;13.448;2023-06-04T05:30:16;18.60;41.00
63219;DHT22;49320;52.512;13.448;2023-06-04T05:32:43;18.90;40.70
63219;DHT22;49320;52.512;13.448;2023-06-04T05:35:10;19.20;40.30
63219;DHT22;49320;52.512;13.448;2023-06-04T05:37:38;19.60;40.10
63219;DHT22;49320;52.512;13.448;2023-06-04T05:40:07;20.10;39.10
63219;DHT22;49320;52.512;13.448;2023-06-04T05:42:35;20.00;39.50
63219;DHT22;49320;52.512;13.448;2023-06-04T05:45:03;20.30;39.20
63219;DHT22;49320;52.512;13.448;2023-06-04T05:47:32;20.50;38.80
63219;DHT22;49320;52.512;13.448;2023-06-04T05:49:59;20.80;38.50
63219;DHT22;49320;52.512;13.448;2023-06-04T05:52:25;21.00;38.30
63219;DHT22;49320;52.512;13.448;2023-06-04T05:54:52;21.30;37.20
63219;DHT22;49320;52.512;13.448;2023-06-04T05:57:20;21.40;37.00
63219;DHT22;49320;52.512;13.448;2023-06-04T05:59:47;21.40;37.60
63219;DHT22;49320;52.512;13.448;2023-06-04T06:04:41;21.80;36.50
63219;DHT22;49320;52.512;13.448;2023-06-04T06:07:08;21.80;35.70
63219;DHT22;49320;52.512;13.448;2023-06-04T06:09:35;21.90;36.80
63219;DHT22;49320;52.512;13.448;2023-06-04T06:12:03;22.00;36.60
63219;DHT22;49320;52.512;13.448;2023-06-04T06:14:32;22.00;36.50
63219;DHT22;49320;52.512;13.448;2023-06-04T06:16:58;22.10;36.40
63219;DHT22;49320;52.512;13.448;2023-06-04T06:19:26;22.20;36.10
63219;DHT22;49320;52.512;13.448;2023-06-04T06:21:53;22.20;35.80
63219;DHT22;49320;52.512;13.448;2023-06-04T06:24:20;22.30;35.50
63219;DHT22;49320;52.512;13.448;2023-06-04T06:26:47;22.20;35.50
63219;DHT22;49320;52.512;13.448;2023-06-04T06:29:14;22.30;35.40
63219;DHT22;49320;52.512;13.448;2023-06-04T06:31:41;22.40;35.20
63219;DHT22;49320;52.512;13.448;2023-06-04T06:34:08;22.40;35.00
63219;DHT22;49320;52.512;13.448;2023-06-04T06:36:34;22.40;35.00
63219;DHT22;49320;52.512;13.448;2023-06-04T06:39:01;22.50;34.90
63219;DHT22;49320;52.512;13.448;2023-06-04T06:41:28;22.50;33.90
63219;DHT22;49320;52.512;13.448;2023-06-04T06:43:57;22.60;33.50
63219;DHT22;49320;52.512;13.448;2023-06-04T06:46:24;22.50;34.30
63219;DHT22;49320;52.512;13.448;2023-06-04T06:48:51;22.60;34.20
63219;DHT22;49320;52.512;13.448;2023-06-04T06:53:45;22.60;33.30
63219;DHT22;49320;52.512;13.448;2023-06-04T06:56:14;22.60;33.80
63219;DHT22;49320;52.512;13.448;2023-06-04T06:58:41;22.60;33.60
63219;DHT22;49320;52.512;13.448;2023-06-04T07:01:08;22.60;33.50
63219;DHT22;49320;52.512;13.448;2023-06-04T07:03:36;22.60;33.40
63219;DHT22;49320;52.512;13.448;2023-06-04T07:06:03;22.50;32.70
63219;DHT22;49320;52.512;13.448;2023-06-04T07:08:29;22.50;33.30
63219;DHT22;49320;52.512;13.448;2023-06-04T07:10:56;22.50;33.20
63219;DHT22;49320;52.512;13.448;2023-06-04T07:13:24;22.50;33.20
63219;DHT22;49320;52.512;13.448;2023-06-04T07:15:51;22.50;33.30
63219;DHT22;49320;52.512;13.448;2023-06-04T07:18:18;22.50;33.20
63219;DHT22;49320;52.512;13.448;2023-06-04T07:20:45;22.40;33.20
63219;DHT22;49320;52.512;13.448;2023-06-04T07:23:11;22.40;33.20
63219;DHT22;49320;52.512;13.448;2023-06-04T07:25:38;22.40;33.20
63219;DHT22;49320;52.512;13.448;2023-06-04T07:28:05;22.40;33.20
63219;DHT22;49320;52.512;13.448;2023-06-04T07:30:33;22.40;33.60
63219;DHT22;49320;52.512;13.448;2023-06-04T07:33:00;22.40;33.00
63219;DHT22;49320;52.512;13.448;2023-06-04T07:35:26;22.40;33.00
63219;DHT22;49320;52.512;13.448;2023-06-04T07:37:53;22.40;32.90
63219;DHT22;49320;52.512;13.448;2023-06-04T07:40:21;22.50;32.10
63219;DHT22;49320;52.512;13.448;2023-06-04T07:42:47;22.40;32.90
63219;DHT22;49320;52.512;13.448;2023-06-04T07:45:15;22.50;32.80
63219;DHT22;49320;52.512;13.448;2023-06-04T07:47:43;22.50;32.70
63219;DHT22;49320;52.512;13.448;2023-06-04T07:50:10;22.50;32.70
63219;DHT22;49320;52.512;13.448;2023-06-04T07:52:37;22.50;32.60
63219;DHT22;49320;52.512;13.448;2023-06-04T07:55:04;22.50;32.20
63219;DHT22;49320;52.512;13.448;2023-06-04T07:57:31;22.50;32.20
63219;DHT22;49320;52.512;13.448;2023-06-04T07:59:58;22.50;32.00
63219;DHT22;49320;52.512;13.448;2023-06-04T08:02:26;22.50;31.80
63219;DHT22;49320;52.512;13.448;2023-06-04T08:04:53;22.50;31.90
63219;DHT22;49320;52.512;13.448;2023-06-04T08:07:20;22.60;30.80
63219;DHT22;49320;52.512;13.448;2023-06-04T08:09:47;22.50;31.50
63219;DHT22;49320;52.512;13.448;2023-06-04T08:12:15;22.60;31.80
63219;DHT22;49320;52.512;13.448;2023-06-04T08:14:42;22.60;31.80
63219;DHT22;49320;52.512;13.448;2023-06-04T08:17:09;22.60;31.70
63219;DHT22;49320;52.512;13.448;2023-06-04T08:19:36;22.50;31.60
63219;DHT22;49320;52.512;13.448;2023-06-04T08:22:04;22.60;31.60
63219;DHT22;49320;52.512;13.448;2023-06-04T08:24:31;22.60;31.60
63219;DHT22;49320;52.512;13.448;2023-06-04T08:26:58;22.70;31.30
63219;DHT22;49320;52.512;13.448;2023-06-04T08:29:25;22.70;31.70
63219;DHT22;49320;52.512;13.448;2023-06-04T08:31:52;22.80;31.60
63219;DHT22;49320;52.512;13.448;2023-06-04T08:34:18;22.70;31.50
63219;DHT22;49320;52.512;13.448;2023-06-04T08:36:47;22.80;31.30
63219;DHT22;49320;52.512;13.448;2023-06-04T08:39:14;22.80;31.10
63219;DHT22;49320;52.512;13.448;2023-06-04T08:41:49;22.80;31.10
63219;DHT22;49320;52.512;13.448;2023-06-04T08:44:18;22.90;30.80
63219;DHT22;49320;52.512;13.448;2023-06-04T08:46:47;22.80;31.20
63219;DHT22;49320;52.512;13.448;2023-06-04T08:49:21;22.80;31.10
63219;DHT22;49320;52.512;13.448;2023-06-04T08:51:48;21.90;30.20
63219;DHT22;49320;52.512;13.448;2023-06-04T08:54:15;22.80;30.90
63219;DHT22;49320;52.512;13.448;2023-06-04T08:56:43;22.90;31.00
63219;DHT22;49320;52.512;13.448;2023-06-04T08:59:11;22.80;30.80
63219;DHT22;49320;52.512;13.448;2023-06-04T09:01:40;22.90;31.20
63219;DHT22;49320;52.512;13.448;2023-06-04T09:04:11;23.00;30.40
63219;DHT22;49320;52.512;13.448;2023-06-04T09:06:39;22.90;29.60
63219;DHT22;49320;52.512;13.448;2023-06-04T09:09:09;22.90;30.30
63219;DHT22;49320;52.512;13.448;2023-06-04T09:11:48;22.90;30.30
63219;DHT22;49320;52.512;13.448;2023-06-04T09:14:17;22.80;30.00
63219;DHT22;49320;52.512;13.448;2023-06-04T09:16:52;22.90;30.00
63219;DHT22;49320;52.512;13.448;2023-06-04T09:19:22;22.90;29.90
63219;DHT22;49320;52.512;13.448;2023-06-04T09:21:56;22.90;29.80
63219;DHT22;49320;52.512;13.448;2023-06-04T09:24:26;22.90;29.80
63219;DHT22;49320;52.512;13.448;2023-06-04T09:27:14;22.80;30.00
63219;DHT22;49320;52.512;13.448;2023-06-04T09:29:54;22.80;30.20
63219;DHT22;49320;52.512;13.448;2023-06-04T09:32:27;22.80;30.20
63219;DHT22;49320;52.512;13.448;2023-06-04T09:35:07;22.90;30.40
63219;DHT22;49320;52.512;13.448;2023-06-04T09:37:51;22.90;30.40
63219;DHT22;49320;52.512;13.448;2023-06-04T09:40:19;23.00;30.30
63219;DHT22;49320;52.512;13.448;2023-06-04T09:42:48;23.10;30.40
63219;DHT22;49320;52.512;13.448;2023-06-04T09:45:30;23.20;30.00
63219;DHT22;49320;52.512;13.448;2023-06-04T09:47:59;23.30;30.40
63219;DHT22;49320;52.512;13.448;2023-06-04T09:50:28;23.30;30.10
63219;DHT22;49320;52.512;13.448;2023-06-04T09:52:57;23.40;30.00
63219;DHT22;49320;52.512;13.448;2023-06-04T09:55:24;23.50;29.70
63219;DHT22;49320;52.512;13.448;2023-06-04T09:57:52;23.60;29.90
63219;DHT22;49320;52.512;13.448;2023-06-04T10:00:21;23.60;29.80
63219;DHT22;49320;52.512;13.448;2023-06-04T10:02:56;23.60;29.80
63219;DHT22;49320;52.512;13.448;2023-06-04T10:05:25;23.70;29.60
63219;DHT22;49320;52.512;13.448;2023-06-04T10:07:54;23.70;29.00
63219;DHT22;49320;52.512;13.448;2023-06-04T10:10:26;23.80;29.70
63219;DHT22;49320;52.512;13.448;2023-06-04T10:13:02;23.80;29.50
63219;DHT22;49320;52.512;13.448;2023-06-04T10:15:35;23.80;29.40
63219;DHT22;49320;52.512;13.448;2023-06-04T10:18:02;23.80;29.40
63219;DHT22;49320;52.512;13.448;2023-06-04T10:20:31;23.80;29.50
63219;DHT22;49320;52.512;13.448;2023-06-04T10:22:59;23.90;29.50
63219;DHT22;49320;52.512;13.448;2023-06-04T10:25:27;23.90;29.40
63219;DHT22;49320;52.512;13.448;2023-06-04T10:27:55;23.90;29.50
63219;DHT22;49320;52.512;13.448;2023-06-04T10:30:22;23.90;29.50
63219;DHT22;49320;52.512;13.448;2023-06-04T10:32:50;23.90;29.40
63219;DHT22;49320;52.512;13.448;2023-06-04T10:35:17;24.00;29.30
63219;DHT22;49320;52.512;13.448;2023-06-04T10:37:44;24.00;29.30
63219;DHT22;49320;52.512;13.448;2023-06-04T10:40:15;24.00;29.30
63219;DHT22;49320;52.512;13.448;2023-06-04T10:42:42;24.10;29.00
63219;DHT22;49320;52.512;13.448;2023-06-04T10:45:10;24.10;28.90
63219;DHT22;49320;52.512;13.448;2023-06-04T10:47:38;24.10;28.90
63219;DHT22;49320;52.512;13.448;2023-06-04T10:50:12;24.10;28.90
63219;DHT22;49320;52.512;13.448;2023-06-04T10:52:53;24.20;28.90
63219;DHT22;49320;52.512;13.448;2023-06-04T10:55:21;24.20;28.80
63219;DHT22;49320;52.512;13.448;2023-06-04T10:57:58;24.20;29.00
63219;DHT22;49320;52.512;13.448;2023-06-04T11:00:39;24.30;28.80
63219;DHT22;49320;52.512;13.448;2023-06-04T11:03:10;24.30;28.30
63219;DHT22;49320;52.512;13.448;2023-06-04T11:08:12;24.50;28.00
63219;DHT22;49320;52.512;13.448;2023-06-04T11:10:43;24.50;28.70
63219;DHT22;49320;52.512;13.448;2023-06-04T11:13:11;24.50;28.30
63219;DHT22;49320;52.512;13.448;2023-06-04T11:15:41;24.50;28.30
63219;DHT22;49320;52.512;13.448;2023-06-04T11:18:13;24.50;28.40
63219;DHT22;49320;52.512;13.448;2023-06-04T11:20:43;24.50;28.40
63219;DHT22;49320;52.512;13.448;2023-06-04T11:23:12;24.50;28.50
63219;DHT22;49320;52.512;13.448;2023-06-04T11:25:39;24.50;28.40
63219;DHT22;49320;52.512;13.448;2023-06-04T11:28:17;24.60;28.10
63219;DHT22;49320;52.512;13.448;2023-06-04T11:30:56;24.50;28.30
63219;DHT22;49320;52.512;13.448;2023-06-04T11:33:30;24.60;28.00
63219;DHT22;49320;52.512;13.448;2023-06-04T11:35:57;24.60;28.20
63219;DHT22;49320;52.512;13.448;2023-06-04T11:38:24;24.60;28.30
63219;DHT22;49320;52.512;13.448;2023-06-04T11:40:57;24.70;28.30
63219;DHT22;49320;52.512;13.448;2023-06-04T11:43:25;24.70;28.20
63219;DHT22;49320;52.512;13.448;2023-06-04T11:45:54;24.80;27.50
63219;DHT22;49320;52.512;13.448;2023-06-04T11:48:21;24.80;28.20
63219;DHT22;49320;52.512;13.448;2023-06-04T11:50:48;24.90;28.20
63219;DHT22;49320;52.512;13.448;2023-06-04T11:55:43;24.90;27.60
63219;DHT22;49320;52.512;13.448;2023-06-04T11:58:11;25.00;28.10
63219;DHT22;49320;52.512;13.448;2023-06-04T12:00:38;25.00;27.90
63219;DHT22;49320;52.512;13.448;2023-06-04T12:03:05;25.10;27.60
63219;DHT22;49320;52.512;13.448;2023-06-04T12:05:32;25.10;28.00
63219;DHT22;49320;52.512;13.448;2023-06-04T12:08:06;25.10;27.70
63219;DHT22;49320;52.512;13.448;2023-06-04T12:10:40;25.20;27.50
63219;DHT22;49320;52.512;13.448;2023-06-04T12:13:08;25.20;27.30
63219;DHT22;49320;52.512;13.448;2023-06-04T12:15:36;25.20;27.60
63219;DHT22;49320;52.512;13.448;2023-06-04T12:18:03;25.20;27.60
63219;DHT22;49320;52.512;13.448;2023-06-04T12:20:38;25.20;27.60
63219;DHT22;49320;52.512;13.448;2023-06-04T12:23:06;25.20;27.70
63219;DHT22;49320;52.512;13.448;2023-06-04T12:25:34;25.30;27.60
63219;DHT22;49320;52.512;13.448;2023-06-04T12:28:04;25.30;27.70
63219;DHT22;49320;52.512;13.448;2023-06-04T12:30:40;25.30;27.60
63219;DHT22;49320;52.512;13.448;2023-06-04T12:33:08;25.30;27.30
63219;DHT22;49320;52.512;13.448;2023-06-04T12:35:37;25.30;27.40
63219;DHT22;49320;52.512;13.448;2023-06-04T12:38:04;25.40;27.50
63219;DHT22;49320;52.512;13.448;2023-06-04T12:40:32;25.40;27.40
63219;DHT22;49320;52.512;13.448;2023-06-04T12:42:59;25.40;27.40
63219;DHT22;49320;52.512;13.448;2023-06-04T12:45:26;25.40;27.30
63219;DHT22;49320;52.512;13.448;2023-06-04T12:47:53;25.50;27.30
63219;DHT22;49320;52.512;13.448;2023-06-04T12:50:20;25.40;26.80
63219;DHT22;49320;52.512;13.448;2023-06-04T12:52:48;25.50;27.20
63219;DHT22;49320;52.512;13.448;2023-06-04T12:55:15;25.50;27.20
63219;DHT22;49320;52.512;13.448;2023-06-04T12:57:42;25.50;27.20
63219;DHT22;49320;52.512;13.448;2023-06-04T13:00:11;25.50;27.00
63219;DHT22;49320;52.512;13.448;2023-06-04T13:02:38;25.50;27.20
63219;DHT22;49320;52.512;13.448;2023-06-04T13:05:06;25.50;26.60
63219;DHT22;49320;52.512;13.448;2023-06-04T13:07:33;25.50;27.00
63219;DHT22;49320;52.512;13.448;2023-06-04T13:09:59;25.40;27.10
63219;DHT22;49320;52.512;13.448;2023-06-04T13:12:27;25.50;27.10
63219;DHT22;49320;52.512;13.448;2023-06-04T13:14:53;25.50;27.20
63219;DHT22;49320;52.512;13.448;2023-06-04T13:17:21;25.60;27.10
63219;DHT22;49320;52.512;13.448;2023-06-04T13:19:49;25.60;27.10
63219;DHT22;49320;52.512;13.448;2023-06-04T13:22:16;25.60;26.50
63219;DHT22;49320;52.512;13.448;2023-06-04T13:24:43;25.60;27.10
63219;DHT22;49320;52.512;13.448;2023-06-04T13:27:10;25.60;27.20
63219;DHT22;49320;52.512;13.448;2023-06-04T13:29:37;25.60;27.00
63219;DHT22;49320;52.512;13.448;2023-06-04T13:32:04;28.90;28.50
63219;DHT22;49320;52.512;13.448;2023-06-04T13:34:31;25.60;27.10
63219;DHT22;49320;52.512;13.448;2023-06-04T13:36:58;25.60;26.90
63219;DHT22;49320;52.512;13.448;2023-06-04T13:39:25;25.70;27.00
63219;DHT22;49320;52.512;13.448;2023-06-04T13:41:52;25.70;27.20
63219;DHT22;49320;52.512;13.448;2023-06-04T13:44:20;25.70;27.20
63219;DHT22;49320;52.512;13.448;2023-06-04T13:46:52;25.70;27.20
63219;DHT22;49320;52.512;13.448;2023-06-04T13:49:20;25.80;26.60
63219;DHT22;49320;52.512;13.448;2023-06-04T13:51:47;25.80;27.00
63219;DHT22;49320;52.512;13.448;2023-06-04T13:54:14;25.80;26.90
63219;DHT22;49320;52.512;13.448;2023-06-04T13:56:41;25.80;26.70
63219;DHT22;49320;52.512;13.448;2023-06-04T13:59:08;25.80;26.90
63219;DHT22;49320;52.512;13.448;2023-06-04T14:01:34;25.80;26.80
63219;DHT22;49320;52.512;13.448;2023-06-04T14:04:01;25.80;26.80
63219;DHT22;49320;52.512;13.448;2023-06-04T14:06:33;25.80;26.80
63219;DHT22;49320;52.512;13.448;2023-06-04T14:09:02;25.80;26.80
63219;DHT22;49320;52.512;13.448;2023-06-04T14:11:29;25.80;26.70
63219;DHT22;49320;52.512;13.448;2023-06-04T14:13:56;25.80;26.70
63219;DHT22;49320;52.512;13.448;2023-06-04T14:16:23;25.80;26.70
63219;DHT22;49320;52.512;13.448;2023-06-04T14:18:50;25.80;26.70
63219;DHT22;49320;52.512;13.448;2023-06-04T14:21:17;25.70;26.40
63219;DHT22;49320;52.512;13.448;2023-06-04T14:23:44;25.70;26.50
63219;DHT22;49320;52.512;13.448;2023-06-04T14:26:10;25.70;26.50
63219;DHT22;49320;52.512;13.448;2023-06-04T14:28:38;25.70;26.20
63219;DHT22;49320;52.512;13.448;2023-06-04T14:31:05;25.80;26.70
63219;DHT22;49320;52.512;13.448;2023-06-04T14:33:33;25.80;26.60
63219;DHT22;49320;52.512;13.448;2023-06-04T14:36:01;25.80;26.60
63219;DHT22;49320;52.512;13.448;2023-06-04T14:38:28;25.90;26.50
63219;DHT22;49320;52.512;13.448;2023-06-04T14:40:56;25.90;26.50
63219;DHT22;49320;52.512;13.448;2023-06-04T14:43:23;26.00;26.40
63219;DHT22;49320;52.512;13.448;2023-06-04T14:45:50;26.00;26.40
63219;DHT22;49320;52.512;13.448;2023-06-04T14:48:16;26.00;26.30
63219;DHT22;49320;52.512;13.448;2023-06-04T14:50:44;26.00;26.90
63219;DHT22;49320;52.512;13.448;2023-06-04T14:53:11;26.00;25.80
63219;DHT22;49320;52.512;13.448;2023-06-04T14:58:06;26.10;25.90
63219;DHT22;49320;52.512;13.448;2023-06-04T15:00:34;26.00;25.80
63219;DHT22;49320;52.512;13.448;2023-06-04T15:03:00;26.10;26.40
63219;DHT22;49320;52.512;13.448;2023-06-04T15:05:29;26.10;26.40
63219;DHT22;49320;52.512;13.448;2023-06-04T15:07:57;26.10;25.80
63219;DHT22;49320;52.512;13.448;2023-06-04T15:10:25;26.20;26.40
63219;DHT22;49320;52.512;13.448;2023-06-04T15:12:52;26.20;26.00
63219;DHT22;49320;52.512;13.448;2023-06-04T15:15:19;26.20;26.50
63219;DHT22;49320;52.512;13.448;2023-06-04T15:17:47;26.20;26.40
63219;DHT22;49320;52.512;13.448;2023-06-04T15:20:15;26.20;25.90
63219;DHT22;49320;52.512;13.448;2023-06-04T15:22:42;26.20;26.30
63219;DHT22;49320;52.512;13.448;2023-06-04T15:25:09;26.10;26.30
63219;DHT22;49320;52.512;13.448;2023-06-04T15:27:37;26.10;25.90
63219;DHT22;49320;52.512;13.448;2023-06-04T15:30:06;26.10;26.30
63219;DHT22;49320;52.512;13.448;2023-06-04T15:32:33;26.10;26.40
63219;DHT22;49320;52.512;13.448;2023-06-04T15:35:04;26.10;26.40
63219;DHT22;49320;52.512;13.448;2023-06-04T15:37:31;26.10;26.40
63219;DHT22;49320;52.512;13.448;2023-06-04T15:39:57;26.10;26.40
63219;DHT22;49320;52.512;13.448;2023-06-04T15:42:26;26.10;26.40
63219;DHT22;49320;52.512;13.448;2023-06-04T15:44:53;26.10;26.40
63219;DHT22;49320;52.512;13.448;2023-06-04T15:47:20;26.10;26.50
63219;DHT22;49320;52.512;13.448;2023-06-04T15:49:47;26.20;26.50
63219;DHT22;49320;52.512;13.448;2023-06-04T15:52:14;26.20;26.10